sensor_id;sensor_type;location;lat;lon;timestamp;P1;durP1;ratioP1;P2;durP2;ratioP2
7027;SDS011;3555;53.248;10.336;2024-01-30T00:01:07;7.30;;;4.83;;
7027;SDS011;3555;53.248;10.336;2024-01-30T00:03:34;6.37;;;4.70;;
7027;SDS011;3555;53.248;10.336;2024-01-30T00:06:02;7.20;;;4.30;;
7027;SDS011;3555;53.248;10.336;2024-01-30T00:08:29;5.60;;;4.37;;
7027;SDS011;3555;53.248;10.336;2024-01-30T00:10:56;5.37;;;4.10;;
7027;SDS011;3555;53.248;10.336;2024-01-30T00:13:23;6.50;;;4.80;;
7027;SDS011;3555;53.248;10.336;2024-01-30T00:15:50;6.40;;;4.57;;
7027;SDS011;3555;53.248;10.336;2024-01-30T00:18:17;6.43;;;4.50;;
7027;SDS011;3555;53.248;10.336;2024-01-30T00:20:44;5.93;;;4.20;;
7027;SDS011;3555;53.248;10.336;2024-01-30T00:23:12;8.43;;;4.80;;
7027;SDS011;3555;53.248;10.336;2024-01-30T00:25:39;5.30;;;3.87;;
7027;SDS011;3555;53.248;10.336;2024-01-30T00:28:06;7.17;;;4.53;;
7027;SDS011;3555;53.248;10.336;2024-01-30T00:30:33;8.23;;;4.93;;
7027;SDS011;3555;53.248;10.336;2024-01-30T00:33:00;7.27;;;5.07;;
7027;SDS011;3555;53.248;10.336;2024-01-30T00:35:27;7.37;;;5.67;;
7027;SDS011;3555;53.248;10.336;2024-01-30T00:37:54;8.47;;;5.23;;
7027;SDS011;3555;53.248;10.336;2024-01-30T00:40:23;11.27;;;4.67;;
7027;SDS011;3555;53.248;10.336;2024-01-30T00:42:50;7.27;;;4.80;;
7027;SDS011;3555;53.248;10.336;2024-01-30T00:45:17;5.80;;;4.37;;
7027;SDS011;3555;53.248;10.336;2024-01-30T00:47:44;7.13;;;4.53;;
7027;SDS011;3555;53.248;10.336;2024-01-30T00:50:11;7.57;;;5.60;;
7027;SDS011;3555;53.248;10.336;2024-01-30T00:52:38;7.53;;;4.97;;
7027;SDS011;3555;53.248;10.336;2024-01-30T00:55:06;6.47;;;5.10;;
7027;SDS011;3555;53.248;10.336;2024-01-30T00:57:34;8.13;;;5.50;;
7027;SDS011;3555;53.248;10.336;2024-01-30T01:00:01;7.07;;;5.10;;
7027;SDS011;3555;53.248;10.336;2024-01-30T01:02:31;7.20;;;5.00;;
7027;SDS011;3555;53.248;10.336;2024-01-30T01:04:58;8.07;;;5.80;;
7027;SDS011;3555;53.248;10.336;2024-01-30T01:07:25;8.90;;;5.10;;
7027;SDS011;3555;53.248;10.336;2024-01-30T01:09:52;9.87;;;5.67;;
7027;SDS011;3555;53.248;10.336;2024-01-30T01:12:19;8.03;;;5.40;;
7027;SDS011;3555;53.248;10.336;2024-01-30T01:14:47;8.87;;;5.57;;
7027;SDS011;3555;53.248;10.336;2024-01-30T01:17:14;10.57;;;6.07;;
7027;SDS011;3555;53.248;10.336;2024-01-30T01:19:41;9.87;;;5.03;;
7027;SDS011;3555;53.248;10.336;2024-01-30T01:22:08;7.70;;;5.67;;
7027;SDS011;3555;53.248;10.336;2024-01-30T01:24:35;8.67;;;5.40;;
7027;SDS011;3555;53.248;10.336;2024-01-30T01:27:02;6.40;;;5.13;;
7027;SDS011;3555;53.248;10.336;2024-01-30T01:29:29;6.90;;;5.10;;
7027;SDS011;3555;53.248;10.336;2024-01-30T01:31:57;6.93;;;5.30;;
7027;SDS011;3555;53.248;10.336;2024-01-30T01:34:25;7.57;;;5.57;;
7027;SDS011;3555;53.248;10.336;2024-01-30T01:36:52;8.13;;;5.63;;
7027;SDS011;3555;53.248;10.336;2024-01-30T01:39:20;9.50;;;5.90;;
7027;SDS011;3555;53.248;10.336;2024-01-30T01:41:48;7.50;;;5.20;;
7027;SDS011;3555;53.248;10.336;2024-01-30T01:44:15;7.27;;;5.47;;
7027;SDS011;3555;53.248;10.336;2024-01-30T01:46:42;9.93;;;5.43;;
7027;SDS011;3555;53.248;10.336;2024-01-30T01:49:10;6.23;;;4.97;;
7027;SDS011;3555;53.248;10.336;2024-01-30T01:51:37;8.60;;;5.33;;
7027;SDS011;3555;53.248;10.336;2024-01-30T01:54:06;7.10;;;5.33;;
7027;SDS011;3555;53.248;10.336;2024-01-30T01:56:33;9.33;;;5.30;;
7027;SDS011;3555;53.248;10.336;2024-01-30T01:59:08;8.70;;;5.47;;
7027;SDS011;3555;53.248;10.336;2024-01-30T02:01:35;6.13;;;4.27;;
7027;SDS011;3555;53.248;10.336;2024-01-30T02:04:03;6.10;;;4.70;;
7027;SDS011;3555;53.248;10.336;2024-01-30T02:06:32;9.17;;;5.20;;
7027;SDS011;3555;53.248;10.336;2024-01-30T02:08:59;8.47;;;5.43;;
7027;SDS011;3555;53.248;10.336;2024-01-30T02:11:26;6.97;;;5.00;;
7027;SDS011;3555;53.248;10.336;2024-01-30T02:13:54;8.97;;;5.37;;
7027;SDS011;3555;53.248;10.336;2024-01-30T02:16:21;6.37;;;4.67;;
7027;SDS011;3555;53.248;10.336;2024-01-30T02:18:48;7.30;;;4.70;;
7027;SDS011;3555;53.248;10.336;2024-01-30T02:21:16;6.03;;;4.53;;
7027;SDS011;3555;53.248;10.336;2024-01-30T02:23:44;6.23;;;4.37;;
7027;SDS011;3555;53.248;10.336;2024-01-30T02:26:13;8.40;;;5.47;;
7027;SDS011;3555;53.248;10.336;2024-01-30T02:28:40;6.03;;;4.67;;
7027;SDS011;3555;53.248;10.336;2024-01-30T02:31:07;6.97;;;4.80;;
7027;SDS011;3555;53.248;10.336;2024-01-30T02:33:33;7.80;;;4.90;;
7027;SDS011;3555;53.248;10.336;2024-01-30T02:36:00;7.20;;;4.90;;
7027;SDS011;3555;53.248;10.336;2024-01-30T02:38:29;5.83;;;4.80;;
7027;SDS011;3555;53.248;10.336;2024-01-30T02:40:56;7.03;;;4.97;;
7027;SDS011;3555;53.248;10.336;2024-01-30T02:43:23;6.80;;;4.77;;
7027;SDS011;3555;53.248;10.336;2024-01-30T02:45:50;8.37;;;5.47;;
7027;SDS011;3555;53.248;10.336;2024-01-30T02:48:16;6.83;;;5.03;;
7027;SDS011;3555;53.248;10.336;2024-01-30T02:50:43;5.37;;;4.30;;
7027;SDS011;3555;53.248;10.336;2024-01-30T02:53:11;7.50;;;5.10;;
7027;SDS011;3555;53.248;10.336;2024-01-30T02:55:39;6.90;;;4.80;;
7027;SDS011;3555;53.248;10.336;2024-01-30T02:58:06;9.30;;;5.00;;
7027;SDS011;3555;53.248;10.336;2024-01-30T03:00:33;7.87;;;5.37;;
7027;SDS011;3555;53.248;10.336;2024-01-30T03:03:00;6.07;;;4.47;;
7027;SDS011;3555;53.248;10.336;2024-01-30T03:05:27;7.83;;;5.33;;
7027;SDS011;3555;53.248;10.336;2024-01-30T03:07:54;6.40;;;4.73;;
7027;SDS011;3555;53.248;10.336;2024-01-30T03:10:21;8.00;;;5.43;;
7027;SDS011;3555;53.248;10.336;2024-01-30T03:12:49;7.70;;;4.80;;
7027;SDS011;3555;53.248;10.336;2024-01-30T03:15:16;6.90;;;5.33;;
7027;SDS011;3555;53.248;10.336;2024-01-30T03:17:43;8.33;;;5.57;;
7027;SDS011;3555;53.248;10.336;2024-01-30T03:20:10;7.67;;;5.33;;
7027;SDS011;3555;53.248;10.336;2024-01-30T03:22:37;7.43;;;5.40;;
7027;SDS011;3555;53.248;10.336;2024-01-30T03:25:05;7.90;;;5.20;;
7027;SDS011;3555;53.248;10.336;2024-01-30T03:27:32;9.27;;;5.17;;
7027;SDS011;3555;53.248;10.336;2024-01-30T03:30:00;8.37;;;5.27;;
7027;SDS011;3555;53.248;10.336;2024-01-30T03:32:27;8.67;;;5.53;;
7027;SDS011;3555;53.248;10.336;2024-01-30T03:34:54;6.63;;;5.10;;
7027;SDS011;3555;53.248;10.336;2024-01-30T03:37:21;7.03;;;5.30;;
7027;SDS011;3555;53.248;10.336;2024-01-30T03:39:48;8.90;;;5.77;;
7027;SDS011;3555;53.248;10.336;2024-01-30T03:42:15;7.60;;;5.17;;
7027;SDS011;3555;53.248;10.336;2024-01-30T03:44:42;6.70;;;4.90;;
7027;SDS011;3555;53.248;10.336;2024-01-30T03:47:10;7.23;;;4.77;;
7027;SDS011;3555;53.248;10.336;2024-01-30T03:49:37;7.30;;;5.67;;
7027;SDS011;3555;53.248;10.336;2024-01-30T03:52:04;5.97;;;4.87;;
7027;SDS011;3555;53.248;10.336;2024-01-30T03:54:31;8.57;;;5.17;;
7027;SDS011;3555;53.248;10.336;2024-01-30T03:56:58;9.67;;;5.97;;
7027;SDS011;3555;53.248;10.336;2024-01-30T03:59:25;6.53;;;5.07;;
7027;SDS011;3555;53.248;10.336;2024-01-30T04:01:52;6.77;;;5.00;;
7027;SDS011;3555;53.248;10.336;2024-01-30T04:04:20;7.07;;;5.50;;
7027;SDS011;3555;53.248;10.336;2024-01-30T04:06:48;7.77;;;5.27;;
7027;SDS011;3555;53.248;10.336;2024-01-30T04:09:15;8.20;;;4.87;;
7027;SDS011;3555;53.248;10.336;2024-01-30T04:11:42;9.33;;;6.13;;
7027;SDS011;3555;53.248;10.336;2024-01-30T04:14:09;6.33;;;5.10;;
7027;SDS011;3555;53.248;10.336;2024-01-30T04:16:36;7.13;;;5.40;;
7027;SDS011;3555;53.248;10.336;2024-01-30T04:19:03;7.40;;;5.30;;
7027;SDS011;3555;53.248;10.336;2024-01-30T04:21:31;6.53;;;5.43;;
7027;SDS011;3555;53.248;10.336;2024-01-30T04:23:58;8.60;;;5.03;;
7027;SDS011;3555;53.248;10.336;2024-01-30T04:26:25;6.70;;;5.23;;
7027;SDS011;3555;53.248;10.336;2024-01-30T04:28:52;10.93;;;6.50;;
7027;SDS011;3555;53.248;10.336;2024-01-30T04:31:19;9.00;;;6.13;;
7027;SDS011;3555;53.248;10.336;2024-01-30T04:33:46;8.47;;;6.40;;
7027;SDS011;3555;53.248;10.336;2024-01-30T04:36:13;8.67;;;6.10;;
7027;SDS011;3555;53.248;10.336;2024-01-30T04:38:41;10.70;;;6.17;;
7027;SDS011;3555;53.248;10.336;2024-01-30T04:41:08;8.10;;;6.30;;
7027;SDS011;3555;53.248;10.336;2024-01-30T04:43:35;10.03;;;6.33;;
7027;SDS011;3555;53.248;10.336;2024-01-30T04:46:02;10.37;;;5.63;;
7027;SDS011;3555;53.248;10.336;2024-01-30T04:48:30;8.07;;;6.00;;
7027;SDS011;3555;53.248;10.336;2024-01-30T04:50:58;7.60;;;5.77;;
7027;SDS011;3555;53.248;10.336;2024-01-30T04:53:27;9.03;;;6.70;;
7027;SDS011;3555;53.248;10.336;2024-01-30T04:55:57;11.57;;;6.43;;
7027;SDS011;3555;53.248;10.336;2024-01-30T04:58:24;10.13;;;6.63;;
7027;SDS011;3555;53.248;10.336;2024-01-30T05:00:50;9.73;;;6.83;;
7027;SDS011;3555;53.248;10.336;2024-01-30T05:03:18;8.63;;;6.53;;
7027;SDS011;3555;53.248;10.336;2024-01-30T05:05:45;10.90;;;6.57;;
7027;SDS011;3555;53.248;10.336;2024-01-30T05:08:12;10.27;;;7.07;;
7027;SDS011;3555;53.248;10.336;2024-01-30T05:10:39;10.37;;;6.80;;
7027;SDS011;3555;53.248;10.336;2024-01-30T05:13:07;9.43;;;6.17;;
7027;SDS011;3555;53.248;10.336;2024-01-30T05:15:34;9.07;;;6.47;;
7027;SDS011;3555;53.248;10.336;2024-01-30T05:18:01;8.40;;;5.80;;
7027;SDS011;3555;53.248;10.336;2024-01-30T05:20:28;9.23;;;6.30;;
7027;SDS011;3555;53.248;10.336;2024-01-30T05:22:54;7.47;;;6.03;;
7027;SDS011;3555;53.248;10.336;2024-01-30T05:25:20;9.00;;;6.97;;
7027;SDS011;3555;53.248;10.336;2024-01-30T05:27:48;8.37;;;6.80;;
7027;SDS011;3555;53.248;10.336;2024-01-30T05:30:16;11.70;;;7.80;;
7027;SDS011;3555;53.248;10.336;2024-01-30T05:32:43;8.53;;;6.90;;
7027;SDS011;3555;53.248;10.336;2024-01-30T05:35:10;8.30;;;6.67;;
7027;SDS011;3555;53.248;10.336;2024-01-30T05:37:37;8.37;;;6.63;;
7027;SDS011;3555;53.248;10.336;2024-01-30T05:40:04;10.43;;;6.90;;
7027;SDS011;3555;53.248;10.336;2024-01-30T05:42:33;9.67;;;7.13;;
7027;SDS011;3555;53.248;10.336;2024-01-30T05:44:59;10.23;;;7.03;;
7027;SDS011;3555;53.248;10.336;2024-01-30T05:47:28;10.07;;;7.07;;
7027;SDS011;3555;53.248;10.336;2024-01-30T05:49:54;9.60;;;6.73;;
7027;SDS011;3555;53.248;10.336;2024-01-30T05:52:21;11.90;;;7.10;;
7027;SDS011;3555;53.248;10.336;2024-01-30T05:54:48;11.37;;;7.53;;
7027;SDS011;3555;53.248;10.336;2024-01-30T05:57:15;11.57;;;7.83;;
7027;SDS011;3555;53.248;10.336;2024-01-30T05:59:41;10.67;;;7.27;;
7027;SDS011;3555;53.248;10.336;2024-01-30T06:02:09;11.77;;;6.80;;
7027;SDS011;3555;53.248;10.336;2024-01-30T06:04:38;8.83;;;6.73;;
7027;SDS011;3555;53.248;10.336;2024-01-30T06:07:05;12.27;;;7.00;;
7027;SDS011;3555;53.248;10.336;2024-01-30T06:09:33;9.90;;;7.07;;
7027;SDS011;3555;53.248;10.336;2024-01-30T06:11:59;13.33;;;8.30;;
7027;SDS011;3555;53.248;10.336;2024-01-30T06:14:26;9.50;;;7.43;;
7027;SDS011;3555;53.248;10.336;2024-01-30T06:16:53;11.10;;;7.93;;
7027;SDS011;3555;53.248;10.336;2024-01-30T06:19:20;9.77;;;7.57;;
7027;SDS011;3555;53.248;10.336;2024-01-30T06:21:48;11.90;;;8.00;;
7027;SDS011;3555;53.248;10.336;2024-01-30T06:24:15;11.90;;;7.97;;
7027;SDS011;3555;53.248;10.336;2024-01-30T06:26:43;11.00;;;7.90;;
7027;SDS011;3555;53.248;10.336;2024-01-30T06:29:09;11.20;;;7.47;;
7027;SDS011;3555;53.248;10.336;2024-01-30T06:31:39;11.83;;;7.80;;
7027;SDS011;3555;53.248;10.336;2024-01-30T06:34:07;12.37;;;8.23;;
7027;SDS011;3555;53.248;10.336;2024-01-30T06:36:34;11.77;;;7.70;;
7027;SDS011;3555;53.248;10.336;2024-01-30T06:39:02;14.10;;;8.30;;
7027;SDS011;3555;53.248;10.336;2024-01-30T06:41:30;11.17;;;7.97;;
7027;SDS011;3555;53.248;10.336;2024-01-30T06:43:57;14.70;;;8.60;;
7027;SDS011;3555;53.248;10.336;2024-01-30T06:46:24;14.90;;;8.97;;
7027;SDS011;3555;53.248;10.336;2024-01-30T06:48:52;13.23;;;8.73;;
7027;SDS011;3555;53.248;10.336;2024-01-30T06:51:19;14.53;;;9.17;;
7027;SDS011;3555;53.248;10.336;2024-01-30T06:53:45;16.47;;;9.37;;
7027;SDS011;3555;53.248;10.336;2024-01-30T06:56:14;14.57;;;9.27;;
7027;SDS011;3555;53.248;10.336;2024-01-30T06:58:45;17.97;;;10.27;;
7027;SDS011;3555;53.248;10.336;2024-01-30T07:01:12;13.57;;;9.37;;
7027;SDS011;3555;53.248;10.336;2024-01-30T07:03:40;13.77;;;9.40;;
7027;SDS011;3555;53.248;10.336;2024-01-30T07:06:08;14.83;;;9.67;;
7027;SDS011;3555;53.248;10.336;2024-01-30T07:08:36;14.37;;;9.70;;
7027;SDS011;3555;53.248;10.336;2024-01-30T07:11:04;13.07;;;9.10;;
7027;SDS011;3555;53.248;10.336;2024-01-30T07:13:32;13.20;;;9.43;;
7027;SDS011;3555;53.248;10.336;2024-01-30T07:16:00;13.53;;;10.00;;
7027;SDS011;3555;53.248;10.336;2024-01-30T07:18:27;13.73;;;9.80;;
7027;SDS011;3555;53.248;10.336;2024-01-30T07:20:54;15.80;;;10.10;;
7027;SDS011;3555;53.248;10.336;2024-01-30T07:23:21;17.20;;;9.53;;
7027;SDS011;3555;53.248;10.336;2024-01-30T07:25:48;13.80;;;9.63;;
7027;SDS011;3555;53.248;10.336;2024-01-30T07:28:15;14.50;;;10.37;;
7027;SDS011;3555;53.248;10.336;2024-01-30T07:30:44;14.13;;;9.37;;
7027;SDS011;3555;53.248;10.336;2024-01-30T07:33:12;14.03;;;10.40;;
7027;SDS011;3555;53.248;10.336;2024-01-30T07:35:39;15.73;;;10.37;;
7027;SDS011;3555;53.248;10.336;2024-01-30T07:38:06;14.60;;;10.10;;
7027;SDS011;3555;53.248;10.336;2024-01-30T07:40:33;12.30;;;9.37;;
7027;SDS011;3555;53.248;10.336;2024-01-30T07:43:00;13.50;;;9.50;;
7027;SDS011;3555;53.248;10.336;2024-01-30T07:45:28;14.33;;;9.83;;
7027;SDS011;3555;53.248;10.336;2024-01-30T07:47:59;16.43;;;9.70;;
7027;SDS011;3555;53.248;10.336;2024-01-30T07:50:26;12.47;;;9.53;;
7027;SDS011;3555;53.248;10.336;2024-01-30T07:52:53;15.17;;;9.80;;
7027;SDS011;3555;53.248;10.336;2024-01-30T07:55:20;20.80;;;10.07;;
7027;SDS011;3555;53.248;10.336;2024-01-30T07:57:49;18.73;;;10.60;;
7027;SDS011;3555;53.248;10.336;2024-01-30T08:00:18;16.13;;;10.07;;
7027;SDS011;3555;53.248;10.336;2024-01-30T08:02:45;13.00;;;9.53;;
7027;SDS011;3555;53.248;10.336;2024-01-30T08:05:14;13.93;;;9.30;;
7027;SDS011;3555;53.248;10.336;2024-01-30T08:07:41;15.63;;;10.33;;
7027;SDS011;3555;53.248;10.336;2024-01-30T08:10:08;18.03;;;10.50;;
7027;SDS011;3555;53.248;10.336;2024-01-30T08:12:38;17.93;;;10.50;;
7027;SDS011;3555;53.248;10.336;2024-01-30T08:15:05;16.03;;;10.10;;
7027;SDS011;3555;53.248;10.336;2024-01-30T08:17:32;13.50;;;10.17;;
7027;SDS011;3555;53.248;10.336;2024-01-30T08:19:59;14.20;;;9.17;;
7027;SDS011;3555;53.248;10.336;2024-01-30T08:22:27;15.10;;;9.23;;
7027;SDS011;3555;53.248;10.336;2024-01-30T08:24:54;12.40;;;8.40;;
7027;SDS011;3555;53.248;10.336;2024-01-30T08:27:21;11.03;;;8.43;;
7027;SDS011;3555;53.248;10.336;2024-01-30T08:29:48;12.60;;;8.87;;
7027;SDS011;3555;53.248;10.336;2024-01-30T08:32:15;13.17;;;9.03;;
7027;SDS011;3555;53.248;10.336;2024-01-30T08:34:42;11.77;;;9.23;;
7027;SDS011;3555;53.248;10.336;2024-01-30T08:37:09;11.60;;;8.90;;
7027;SDS011;3555;53.248;10.336;2024-01-30T08:39:37;12.60;;;7.90;;
7027;SDS011;3555;53.248;10.336;2024-01-30T08:42:05;11.70;;;8.07;;
7027;SDS011;3555;53.248;10.336;2024-01-30T08:44:33;12.57;;;8.17;;
7027;SDS011;3555;53.248;10.336;2024-01-30T08:46:59;10.80;;;8.23;;
7027;SDS011;3555;53.248;10.336;2024-01-30T08:49:26;11.83;;;8.07;;
7027;SDS011;3555;53.248;10.336;2024-01-30T08:51:53;12.23;;;7.77;;
7027;SDS011;3555;53.248;10.336;2024-01-30T08:54:20;11.87;;;7.90;;
7027;SDS011;3555;53.248;10.336;2024-01-30T08:56:49;11.13;;;7.80;;
7027;SDS011;3555;53.248;10.336;2024-01-30T08:59:17;10.87;;;7.23;;
7027;SDS011;3555;53.248;10.336;2024-01-30T09:01:44;10.67;;;7.13;;
7027;SDS011;3555;53.248;10.336;2024-01-30T09:04:13;10.63;;;7.87;;
7027;SDS011;3555;53.248;10.336;2024-01-30T09:06:39;12.33;;;8.07;;
7027;SDS011;3555;53.248;10.336;2024-01-30T09:09:06;13.07;;;7.70;;
7027;SDS011;3555;53.248;10.336;2024-01-30T09:11:34;12.97;;;8.80;;
7027;SDS011;3555;53.248;10.336;2024-01-30T09:14:03;11.43;;;8.90;;
7027;SDS011;3555;53.248;10.336;2024-01-30T09:16:30;9.70;;;7.17;;
7027;SDS011;3555;53.248;10.336;2024-01-30T09:18:57;11.33;;;7.50;;
7027;SDS011;3555;53.248;10.336;2024-01-30T09:21:24;11.57;;;7.67;;
7027;SDS011;3555;53.248;10.336;2024-01-30T09:23:52;10.83;;;7.50;;
7027;SDS011;3555;53.248;10.336;2024-01-30T09:26:20;12.37;;;6.83;;
7027;SDS011;3555;53.248;10.336;2024-01-30T09:28:47;10.53;;;6.60;;
7027;SDS011;3555;53.248;10.336;2024-01-30T09:31:15;8.77;;;7.33;;
7027;SDS011;3555;53.248;10.336;2024-01-30T09:33:42;11.67;;;7.63;;
7027;SDS011;3555;53.248;10.336;2024-01-30T09:36:12;9.27;;;6.47;;
7027;SDS011;3555;53.248;10.336;2024-01-30T09:38:40;10.67;;;6.93;;
7027;SDS011;3555;53.248;10.336;2024-01-30T09:41:09;10.47;;;6.97;;
7027;SDS011;3555;53.248;10.336;2024-01-30T09:43:36;10.37;;;6.80;;
7027;SDS011;3555;53.248;10.336;2024-01-30T09:46:04;9.97;;;6.43;;
7027;SDS011;3555;53.248;10.336;2024-01-30T09:48:35;9.93;;;6.80;;
7027;SDS011;3555;53.248;10.336;2024-01-30T09:51:03;8.23;;;6.03;;
7027;SDS011;3555;53.248;10.336;2024-01-30T09:53:30;9.20;;;6.53;;
7027;SDS011;3555;53.248;10.336;2024-01-30T09:55:57;8.60;;;6.70;;
7027;SDS011;3555;53.248;10.336;2024-01-30T09:58:24;9.90;;;6.30;;
7027;SDS011;3555;53.248;10.336;2024-01-30T10:00:51;8.03;;;5.80;;
7027;SDS011;3555;53.248;10.336;2024-01-30T10:03:19;10.40;;;6.30;;
7027;SDS011;3555;53.248;10.336;2024-01-30T10:05:47;9.53;;;6.33;;
7027;SDS011;3555;53.248;10.336;2024-01-30T10:08:18;9.20;;;6.23;;
7027;SDS011;3555;53.248;10.336;2024-01-30T10:10:46;11.37;;;6.67;;
7027;SDS011;3555;53.248;10.336;2024-01-30T10:13:13;9.30;;;6.87;;
7027;SDS011;3555;53.248;10.336;2024-01-30T10:15:39;11.43;;;6.63;;
7027;SDS011;3555;53.248;10.336;2024-01-30T10:18:08;12.77;;;6.83;;
7027;SDS011;3555;53.248;10.336;2024-01-30T10:20:35;9.43;;;6.67;;
7027;SDS011;3555;53.248;10.336;2024-01-30T10:23:03;12.57;;;6.53;;
7027;SDS011;3555;53.248;10.336;2024-01-30T10:25:30;9.03;;;5.97;;
7027;SDS011;3555;53.248;10.336;2024-01-30T10:27:58;8.47;;;6.50;;
7027;SDS011;3555;53.248;10.336;2024-01-30T10:30:26;10.10;;;6.37;;
7027;SDS011;3555;53.248;10.336;2024-01-30T10:32:54;8.00;;;5.93;;
7027;SDS011;3555;53.248;10.336;2024-01-30T10:35:21;10.20;;;6.00;;
7027;SDS011;3555;53.248;10.336;2024-01-30T10:37:47;8.63;;;6.33;;
7027;SDS011;3555;53.248;10.336;2024-01-30T10:40:16;9.03;;;6.20;;
7027;SDS011;3555;53.248;10.336;2024-01-30T10:42:45;10.27;;;6.90;;
7027;SDS011;3555;53.248;10.336;2024-01-30T10:45:12;8.97;;;5.73;;
7027;SDS011;3555;53.248;10.336;2024-01-30T10:47:41;8.33;;;5.97;;
7027;SDS011;3555;53.248;10.336;2024-01-30T10:50:12;9.40;;;6.10;;
7027;SDS011;3555;53.248;10.336;2024-01-30T10:52:40;7.77;;;5.60;;
7027;SDS011;3555;53.248;10.336;2024-01-30T10:55:08;7.07;;;5.27;;
7027;SDS011;3555;53.248;10.336;2024-01-30T10:57:37;8.23;;;5.50;;
7027;SDS011;3555;53.248;10.336;2024-01-30T11:00:05;8.53;;;5.13;;
7027;SDS011;3555;53.248;10.336;2024-01-30T11:02:36;8.53;;;4.83;;
7027;SDS011;3555;53.248;10.336;2024-01-30T11:05:04;9.10;;;5.07;;
7027;SDS011;3555;53.248;10.336;2024-01-30T11:07:33;5.73;;;4.53;;
7027;SDS011;3555;53.248;10.336;2024-01-30T11:10:01;7.13;;;4.40;;
7027;SDS011;3555;53.248;10.336;2024-01-30T11:12:30;8.57;;;4.70;;
7027;SDS011;3555;53.248;10.336;2024-01-30T11:15:04;6.30;;;5.03;;
7027;SDS011;3555;53.248;10.336;2024-01-30T11:17:42;7.03;;;4.50;;
7027;SDS011;3555;53.248;10.336;2024-01-30T11:20:16;6.30;;;4.47;;
7027;SDS011;3555;53.248;10.336;2024-01-30T11:22:46;6.00;;;4.77;;
7027;SDS011;3555;53.248;10.336;2024-01-30T11:25:14;7.20;;;4.60;;
7027;SDS011;3555;53.248;10.336;2024-01-30T11:27:42;7.60;;;4.50;;
7027;SDS011;3555;53.248;10.336;2024-01-30T11:30:11;7.30;;;4.23;;
7027;SDS011;3555;53.248;10.336;2024-01-30T11:32:46;7.27;;;4.43;;
7027;SDS011;3555;53.248;10.336;2024-01-30T11:35:24;5.53;;;4.50;;
7027;SDS011;3555;53.248;10.336;2024-01-30T11:37:52;7.33;;;4.43;;
7027;SDS011;3555;53.248;10.336;2024-01-30T11:40:20;9.37;;;4.47;;
7027;SDS011;3555;53.248;10.336;2024-01-30T11:42:47;5.97;;;4.30;;
7027;SDS011;3555;53.248;10.336;2024-01-30T11:45:17;7.70;;;4.70;;
7027;SDS011;3555;53.248;10.336;2024-01-30T11:47:44;6.63;;;4.23;;
7027;SDS011;3555;53.248;10.336;2024-01-30T11:50:11;7.73;;;4.40;;
7027;SDS011;3555;53.248;10.336;2024-01-30T11:52:38;8.37;;;4.20;;
7027;SDS011;3555;53.248;10.336;2024-01-30T11:55:05;5.37;;;3.83;;
7027;SDS011;3555;53.248;10.336;2024-01-30T11:57:34;6.63;;;4.73;;
7027;SDS011;3555;53.248;10.336;2024-01-30T12:00:02;7.50;;;4.87;;
7027;SDS011;3555;53.248;10.336;2024-01-30T12:02:35;5.30;;;4.67;;
7027;SDS011;3555;53.248;10.336;2024-01-30T12:05:03;7.37;;;5.37;;
7027;SDS011;3555;53.248;10.336;2024-01-30T12:07:31;8.87;;;4.60;;
7027;SDS011;3555;53.248;10.336;2024-01-30T12:09:58;6.30;;;4.30;;
7027;SDS011;3555;53.248;10.336;2024-01-30T12:12:26;8.33;;;4.77;;
7027;SDS011;3555;53.248;10.336;2024-01-30T12:14:54;7.07;;;5.33;;
7027;SDS011;3555;53.248;10.336;2024-01-30T12:17:28;7.13;;;4.67;;
7027;SDS011;3555;53.248;10.336;2024-01-30T12:20:04;5.70;;;4.20;;
7027;SDS011;3555;53.248;10.336;2024-01-30T12:22:32;8.13;;;4.93;;
7027;SDS011;3555;53.248;10.336;2024-01-30T12:25:02;6.60;;;5.00;;
7027;SDS011;3555;53.248;10.336;2024-01-30T12:27:30;5.30;;;4.60;;
7027;SDS011;3555;53.248;10.336;2024-01-30T12:29:57;6.83;;;5.00;;
7027;SDS011;3555;53.248;10.336;2024-01-30T12:32:24;7.37;;;4.83;;
7027;SDS011;3555;53.248;10.336;2024-01-30T12:34:54;10.03;;;5.83;;
7027;SDS011;3555;53.248;10.336;2024-01-30T12:37:23;5.37;;;4.27;;
7027;SDS011;3555;53.248;10.336;2024-01-30T12:39:51;6.87;;;4.40;;
7027;SDS011;3555;53.248;10.336;2024-01-30T12:42:19;10.43;;;5.07;;
7027;SDS011;3555;53.248;10.336;2024-01-30T12:44:47;10.50;;;5.00;;
7027;SDS011;3555;53.248;10.336;2024-01-30T12:47:14;6.33;;;4.63;;
7027;SDS011;3555;53.248;10.336;2024-01-30T12:49:42;5.80;;;4.27;;
7027;SDS011;3555;53.248;10.336;2024-01-30T12:52:09;7.40;;;5.27;;
7027;SDS011;3555;53.248;10.336;2024-01-30T12:54:38;9.63;;;4.60;;
7027;SDS011;3555;53.248;10.336;2024-01-30T12:57:05;9.03;;;5.60;;
7027;SDS011;3555;53.248;10.336;2024-01-30T12:59:32;6.77;;;4.60;;
7027;SDS011;3555;53.248;10.336;2024-01-30T13:02:00;10.10;;;5.07;;
7027;SDS011;3555;53.248;10.336;2024-01-30T13:04:28;8.20;;;4.23;;
7027;SDS011;3555;53.248;10.336;2024-01-30T13:06:55;8.30;;;4.63;;
7027;SDS011;3555;53.248;10.336;2024-01-30T13:09:23;7.77;;;4.70;;
7027;SDS011;3555;53.248;10.336;2024-01-30T13:11:51;6.20;;;4.43;;
7027;SDS011;3555;53.248;10.336;2024-01-30T13:14:19;5.87;;;4.30;;
7027;SDS011;3555;53.248;10.336;2024-01-30T13:16:45;7.73;;;4.53;;
7027;SDS011;3555;53.248;10.336;2024-01-30T13:19:13;7.27;;;4.37;;
7027;SDS011;3555;53.248;10.336;2024-01-30T13:21:40;5.23;;;4.17;;
7027;SDS011;3555;53.248;10.336;2024-01-30T13:24:07;6.87;;;4.40;;
7027;SDS011;3555;53.248;10.336;2024-01-30T13:26:34;5.93;;;4.60;;
7027;SDS011;3555;53.248;10.336;2024-01-30T13:29:03;7.93;;;4.30;;
7027;SDS011;3555;53.248;10.336;2024-01-30T13:31:30;6.13;;;4.20;;
7027;SDS011;3555;53.248;10.336;2024-01-30T13:33:57;6.40;;;4.10;;
7027;SDS011;3555;53.248;10.336;2024-01-30T13:36:24;7.40;;;4.70;;
7027;SDS011;3555;53.248;10.336;2024-01-30T13:38:51;7.83;;;4.60;;
7027;SDS011;3555;53.248;10.336;2024-01-30T13:41:18;6.53;;;4.03;;
7027;SDS011;3555;53.248;10.336;2024-01-30T13:43:46;5.73;;;4.03;;
7027;SDS011;3555;53.248;10.336;2024-01-30T13:46:14;7.87;;;4.73;;
7027;SDS011;3555;53.248;10.336;2024-01-30T13:48:41;8.07;;;4.40;;
7027;SDS011;3555;53.248;10.336;2024-01-30T13:51:08;6.47;;;4.03;;
7027;SDS011;3555;53.248;10.336;2024-01-30T13:53:36;6.43;;;4.40;;
7027;SDS011;3555;53.248;10.336;2024-01-30T13:56:03;7.00;;;4.67;;
7027;SDS011;3555;53.248;10.336;2024-01-30T13:58:31;5.90;;;4.20;;
7027;SDS011;3555;53.248;10.336;2024-01-30T14:00:59;8.33;;;4.60;;
7027;SDS011;3555;53.248;10.336;2024-01-30T14:03:28;7.53;;;4.53;;
7027;SDS011;3555;53.248;10.336;2024-01-30T14:05:55;9.03;;;4.60;;
7027;SDS011;3555;53.248;10.336;2024-01-30T14:08:22;5.93;;;4.33;;
7027;SDS011;3555;53.248;10.336;2024-01-30T14:11:01;7.83;;;4.50;;
7027;SDS011;3555;53.248;10.336;2024-01-30T14:13:28;6.60;;;4.38;;
7027;SDS011;3555;53.248;10.336;2024-01-30T14:15:57;7.67;;;5.17;;
7027;SDS011;3555;53.248;10.336;2024-01-30T14:18:25;7.87;;;4.57;;
7027;SDS011;3555;53.248;10.336;2024-01-30T14:20:54;8.07;;;4.80;;
7027;SDS011;3555;53.248;10.336;2024-01-30T14:23:21;7.37;;;4.60;;
7027;SDS011;3555;53.248;10.336;2024-01-30T14:25:48;6.67;;;4.57;;
7027;SDS011;3555;53.248;10.336;2024-01-30T14:28:16;12.20;;;4.93;;
7027;SDS011;3555;53.248;10.336;2024-01-30T14:30:44;7.83;;;4.77;;
7027;SDS011;3555;53.248;10.336;2024-01-30T14:33:11;13.17;;;4.67;;
7027;SDS011;3555;53.248;10.336;2024-01-30T14:35:38;10.23;;;5.60;;
7027;SDS011;3555;53.248;10.336;2024-01-30T14:38:06;7.43;;;4.70;;
7027;SDS011;3555;53.248;10.336;2024-01-30T14:40:34;8.43;;;5.00;;
7027;SDS011;3555;53.248;10.336;2024-01-30T14:43:01;8.50;;;5.37;;
7027;SDS011;3555;53.248;10.336;2024-01-30T14:45:28;10.43;;;5.07;;
7027;SDS011;3555;53.248;10.336;2024-01-30T14:47:57;9.07;;;5.60;;
7027;SDS011;3555;53.248;10.336;2024-01-30T14:50:24;10.17;;;5.40;;
7027;SDS011;3555;53.248;10.336;2024-01-30T14:52:52;6.77;;;4.70;;
7027;SDS011;3555;53.248;10.336;2024-01-30T14:55:20;6.97;;;4.80;;
7027;SDS011;3555;53.248;10.336;2024-01-30T14:57:47;9.37;;;4.60;;